sensor_id;sensor_type;location;lat;lon;timestamp;pressure;altitude;pressure_sealevel;temperature;humidity
79612;BME280;69094;48.154;11.536;2023-06-14T00:01:35;95020.69;;;15.11;39.29
79612;BME280;69094;48.154;11.536;2023-06-14T00:04:01;95026.97;;;15.15;38.95
79612;BME280;69094;48.154;11.536;2023-06-14T00:06:28;95018.03;;;15.18;38.72
79612;BME280;69094;48.154;11.536;2023-06-14T00:08:54;95034.06;;;15.16;38.42
79612;BME280;69094;48.154;11.536;2023-06-14T00:11:19;95026.16;;;15.11;38.21
79612;BME280;69094;48.154;11.536;2023-06-14T00:13:45;95035.81;;;15.04;39.17
79612;BME280;69094;48.154;11.536;2023-06-14T00:16:11;95006.91;;;15.07;38.02
79612;BME280;69094;48.154;11.536;2023-06-14T00:18:37;95027.59;;;15.04;38.03
79612;BME280;69094;48.154;11.536;2023-06-14T00:21:03;95014.94;;;14.96;39.21
79612;BME280;69094;48.154;11.536;2023-06-14T00:23:29;95020.13;;;15.01;38.43
79612;BME280;69094;48.154;11.536;2023-06-14T00:25:54;95018.06;;;14.95;38.64
79612;BME280;69094;48.154;11.536;2023-06-14T00:28:20;95015.25;;;14.91;38.88
79612;BME280;69094;48.154;11.536;2023-06-14T00:30:45;95026.88;;;14.84;39.25
79612;BME280;69094;48.154;11.536;2023-06-14T00:33:12;95021.72;;;14.79;39.43
79612;BME280;69094;48.154;11.536;2023-06-14T00:35:37;95020.94;;;14.79;39.73
79612;BME280;69094;48.154;11.536;2023-06-14T00:38:02;95020.31;;;14.66;40.04
79612;BME280;69094;48.154;11.536;2023-06-14T00:40:28;95024.44;;;14.56;40.29
79612;BME280;69094;48.154;11.536;2023-06-14T00:42:53;95013.31;;;14.49;40.42
79612;BME280;69094;48.154;11.536;2023-06-14T00:45:18;95010.22;;;14.51;41.27
79612;BME280;69094;48.154;11.536;2023-06-14T00:47:45;95025.06;;;14.50;42.00
79612;BME280;69094;48.154;11.536;2023-06-14T00:50:11;95018.22;;;14.40;41.79
79612;BME280;69094;48.154;11.536;2023-06-14T00:52:38;95021.28;;;14.35;42.74
79612;BME280;69094;48.154;11.536;2023-06-14T00:55:04;95020.09;;;14.36;42.12
79612;BME280;69094;48.154;11.536;2023-06-14T00:57:30;95012.13;;;14.27;42.95
79612;BME280;69094;48.154;11.536;2023-06-14T00:59:56;95021.06;;;14.24;42.75
79612;BME280;69094;48.154;11.536;2023-06-14T01:02:21;95022.59;;;14.21;43.82
79612;BME280;69094;48.154;11.536;2023-06-14T01:04:49;95015.50;;;14.20;43.38
79612;BME280;69094;48.154;11.536;2023-06-14T01:12:38;95032.91;;;14.09;44.76
79612;BME280;69094;48.154;11.536;2023-06-14T01:17:41;95028.94;;;14.06;44.73
79612;BME280;69094;48.154;11.536;2023-06-14T01:20:11;95021.81;;;14.02;44.70
79612;BME280;69094;48.154;11.536;2023-06-14T01:22:51;95026.34;;;13.94;44.57
79612;BME280;69094;48.154;11.536;2023-06-14T01:25:18;95016.25;;;13.98;44.14
79612;BME280;69094;48.154;11.536;2023-06-14T01:27:47;95017.56;;;14.04;44.08
79612;BME280;69094;48.154;11.536;2023-06-14T01:30:14;95019.34;;;13.96;44.45
79612;BME280;69094;48.154;11.536;2023-06-14T01:32:40;95018.53;;;13.96;44.24
79612;BME280;69094;48.154;11.536;2023-06-14T01:35:06;95018.41;;;13.89;44.64
79612;BME280;69094;48.154;11.536;2023-06-14T01:37:31;95010.63;;;13.91;44.13
79612;BME280;69094;48.154;11.536;2023-06-14T01:39:57;95016.59;;;13.77;45.19
79612;BME280;69094;48.154;11.536;2023-06-14T01:42:23;95013.09;;;13.76;44.62
79612;BME280;69094;48.154;11.536;2023-06-14T01:44:51;95005.22;;;13.75;44.83
79612;BME280;69094;48.154;11.536;2023-06-14T01:47:17;95004.72;;;13.69;44.69
79612;BME280;69094;48.154;11.536;2023-06-14T01:49:42;95003.84;;;13.65;45.75
79612;BME280;69094;48.154;11.536;2023-06-14T01:52:08;95002.91;;;13.57;45.63
79612;BME280;69094;48.154;11.536;2023-06-14T01:54:35;94998.50;;;13.53;45.36
79612;BME280;69094;48.154;11.536;2023-06-14T01:57:03;95000.38;;;13.49;45.83
79612;BME280;69094;48.154;11.536;2023-06-14T01:59:28;95007.16;;;13.55;45.76
79612;BME280;69094;48.154;11.536;2023-06-14T02:01:54;95007.50;;;13.53;46.04
79612;BME280;69094;48.154;11.536;2023-06-14T02:04:19;95000.53;;;13.56;45.79
79612;BME280;69094;48.154;11.536;2023-06-14T02:06:44;95005.13;;;13.52;46.10
79612;BME280;69094;48.154;11.536;2023-06-14T02:09:10;95006.00;;;13.56;46.12
79612;BME280;69094;48.154;11.536;2023-06-14T02:11:35;94995.78;;;13.53;45.84
79612;BME280;69094;48.154;11.536;2023-06-14T02:14:00;94998.06;;;13.51;46.47
79612;BME280;69094;48.154;11.536;2023-06-14T02:16:27;95007.94;;;13.55;46.23
79612;BME280;69094;48.154;11.536;2023-06-14T02:18:53;95000.91;;;13.54;45.15
79612;BME280;69094;48.154;11.536;2023-06-14T02:21:19;95006.09;;;13.60;44.90
79612;BME280;69094;48.154;11.536;2023-06-14T02:23:44;94996.94;;;13.52;44.72
79612;BME280;69094;48.154;11.536;2023-06-14T02:26:10;95000.53;;;13.56;44.59
79612;BME280;69094;48.154;11.536;2023-06-14T02:28:35;94992.97;;;13.49;45.25
79612;BME280;69094;48.154;11.536;2023-06-14T02:31:00;94992.88;;;13.46;44.69
79612;BME280;69094;48.154;11.536;2023-06-14T02:33:26;94998.72;;;13.44;45.17
79612;BME280;69094;48.154;11.536;2023-06-14T02:35:51;95003.25;;;13.37;45.31
79612;BME280;69094;48.154;11.536;2023-06-14T02:38:18;94994.16;;;13.32;45.65
79612;BME280;69094;48.154;11.536;2023-06-14T02:40:43;94997.75;;;13.21;46.23
79612;BME280;69094;48.154;11.536;2023-06-14T02:43:08;95004.72;;;13.18;46.12
79612;BME280;69094;48.154;11.536;2023-06-14T02:45:34;95002.63;;;13.11;46.43
79612;BME280;69094;48.154;11.536;2023-06-14T02:47:59;95008.09;;;12.96;47.73
79612;BME280;69094;48.154;11.536;2023-06-14T02:50:25;95004.75;;;13.02;47.89
79612;BME280;69094;48.154;11.536;2023-06-14T02:52:51;95006.88;;;12.93;47.27
79612;BME280;69094;48.154;11.536;2023-06-14T02:55:17;95004.59;;;12.95;45.91
79612;BME280;69094;48.154;11.536;2023-06-14T02:57:43;95002.56;;;12.92;45.98
79612;BME280;69094;48.154;11.536;2023-06-14T03:00:09;95005.31;;;12.92;46.79
79612;BME280;69094;48.154;11.536;2023-06-14T03:02:38;94999.22;;;12.83;46.57
79612;BME280;69094;48.154;11.536;2023-06-14T03:05:03;95008.03;;;12.76;46.69
79612;BME280;69094;48.154;11.536;2023-06-14T03:07:31;95004.31;;;12.84;47.06
79612;BME280;69094;48.154;11.536;2023-06-14T03:09:57;95002.13;;;12.74;46.99
79612;BME280;69094;48.154;11.536;2023-06-14T03:12:23;95004.84;;;12.74;48.00
79612;BME280;69094;48.154;11.536;2023-06-14T03:14:49;95017.25;;;12.71;47.37
79612;BME280;69094;48.154;11.536;2023-06-14T03:17:16;95007.66;;;12.62;48.77
79612;BME280;69094;48.154;11.536;2023-06-14T03:19:42;95018.22;;;12.79;50.13
79612;BME280;69094;48.154;11.536;2023-06-14T03:22:08;95020.53;;;12.77;53.38
79612;BME280;69094;48.154;11.536;2023-06-14T03:24:33;95026.41;;;12.63;53.53
79612;BME280;69094;48.154;11.536;2023-06-14T03:27:02;95026.34;;;12.60;53.58
79612;BME280;69094;48.154;11.536;2023-06-14T03:29:27;95029.75;;;12.57;53.79
79612;BME280;69094;48.154;11.536;2023-06-14T03:31:57;95029.59;;;12.65;53.83
79612;BME280;69094;48.154;11.536;2023-06-14T03:34:23;95029.50;;;12.62;53.57
79612;BME280;69094;48.154;11.536;2023-06-14T03:36:48;95030.03;;;12.83;52.62
79612;BME280;69094;48.154;11.536;2023-06-14T03:39:14;95035.59;;;12.87;53.02
79612;BME280;69094;48.154;11.536;2023-06-14T03:41:39;95025.66;;;12.95;52.73
79612;BME280;69094;48.154;11.536;2023-06-14T03:44:05;95026.25;;;12.88;52.37
79612;BME280;69094;48.154;11.536;2023-06-14T03:46:30;95031.53;;;12.81;51.10
79612;BME280;69094;48.154;11.536;2023-06-14T03:48:56;95026.69;;;12.74;52.14
79612;BME280;69094;48.154;11.536;2023-06-14T03:51:22;95032.31;;;12.81;52.16
79612;BME280;69094;48.154;11.536;2023-06-14T03:53:47;95038.69;;;12.85;52.64
79612;BME280;69094;48.154;11.536;2023-06-14T03:56:13;95037.63;;;12.90;52.71
79612;BME280;69094;48.154;11.536;2023-06-14T03:58:38;95036.22;;;12.80;53.30
79612;BME280;69094;48.154;11.536;2023-06-14T04:01:03;95037.25;;;12.76;53.44
79612;BME280;69094;48.154;11.536;2023-06-14T04:03:29;95045.63;;;12.83;52.90
79612;BME280;69094;48.154;11.536;2023-06-14T04:05:55;95052.50;;;12.92;53.53
79612;BME280;69094;48.154;11.536;2023-06-14T04:08:22;95051.88;;;12.99;53.01
79612;BME280;69094;48.154;11.536;2023-06-14T04:10:47;95055.84;;;13.02;52.51
79612;BME280;69094;48.154;11.536;2023-06-14T04:13:12;95058.84;;;12.97;51.22
79612;BME280;69094;48.154;11.536;2023-06-14T04:15:39;95069.44;;;12.82;51.06
79612;BME280;69094;48.154;11.536;2023-06-14T04:18:07;95065.28;;;12.88;51.46
79612;BME280;69094;48.154;11.536;2023-06-14T04:20:33;95071.19;;;12.90;51.63
79612;BME280;69094;48.154;11.536;2023-06-14T04:23:11;95073.19;;;12.93;51.08
79612;BME280;69094;48.154;11.536;2023-06-14T04:25:37;95068.63;;;12.98;51.85
79612;BME280;69094;48.154;11.536;2023-06-14T04:28:03;95071.09;;;13.03;51.38
79612;BME280;69094;48.154;11.536;2023-06-14T04:30:29;95074.47;;;13.12;50.96
79612;BME280;69094;48.154;11.536;2023-06-14T04:32:56;95074.97;;;13.18;50.76
79612;BME280;69094;48.154;11.536;2023-06-14T04:35:21;95078.06;;;13.16;49.18
79612;BME280;69094;48.154;11.536;2023-06-14T04:37:49;95080.88;;;13.20;50.35
79612;BME280;69094;48.154;11.536;2023-06-14T04:40:14;95082.56;;;13.24;49.23
79612;BME280;69094;48.154;11.536;2023-06-14T04:42:40;95087.78;;;13.29;48.55
79612;BME280;69094;48.154;11.536;2023-06-14T04:45:06;95084.34;;;13.32;48.18
79612;BME280;69094;48.154;11.536;2023-06-14T04:47:32;95079.63;;;13.49;47.83
79612;BME280;69094;48.154;11.536;2023-06-14T04:49:59;95081.69;;;13.52;47.95
79612;BME280;69094;48.154;11.536;2023-06-14T04:52:25;95082.47;;;13.52;47.28
79612;BME280;69094;48.154;11.536;2023-06-14T04:54:52;95082.69;;;13.63;47.90
79612;BME280;69094;48.154;11.536;2023-06-14T04:57:19;95091.56;;;13.76;47.17
79612;BME280;69094;48.154;11.536;2023-06-14T04:59:47;95090.59;;;13.84;46.95
79612;BME280;69094;48.154;11.536;2023-06-14T05:02:12;95086.47;;;13.74;46.84
79612;BME280;69094;48.154;11.536;2023-06-14T05:04:38;95097.59;;;13.82;47.20
79612;BME280;69094;48.154;11.536;2023-06-14T05:07:07;95093.91;;;13.74;47.27
79612;BME280;69094;48.154;11.536;2023-06-14T05:09:33;95090.31;;;13.89;47.27
79612;BME280;69094;48.154;11.536;2023-06-14T05:11:58;95099.03;;;13.95;46.83
79612;BME280;69094;48.154;11.536;2023-06-14T05:14:25;95101.28;;;14.09;47.26
79612;BME280;69094;48.154;11.536;2023-06-14T05:16:51;95107.78;;;14.20;46.84
79612;BME280;69094;48.154;11.536;2023-06-14T05:19:17;95110.22;;;14.25;47.04
79612;BME280;69094;48.154;11.536;2023-06-14T05:21:43;95104.25;;;14.39;45.88
79612;BME280;69094;48.154;11.536;2023-06-14T05:24:09;95104.53;;;14.34;45.90
79612;BME280;69094;48.154;11.536;2023-06-14T05:26:35;95110.72;;;14.31;45.91
79612;BME280;69094;48.154;11.536;2023-06-14T05:29:00;95113.84;;;14.29;46.00
79612;BME280;69094;48.154;11.536;2023-06-14T05:31:27;95107.13;;;14.46;45.95
79612;BME280;69094;48.154;11.536;2023-06-14T05:33:53;95114.41;;;14.58;47.07
79612;BME280;69094;48.154;11.536;2023-06-14T05:36:19;95109.72;;;14.78;46.20
79612;BME280;69094;48.154;11.536;2023-06-14T05:38:46;95107.91;;;14.85;46.15
79612;BME280;69094;48.154;11.536;2023-06-14T05:41:11;95125.16;;;14.67;46.88
79612;BME280;69094;48.154;11.536;2023-06-14T05:43:37;95120.75;;;14.81;46.79
79612;BME280;69094;48.154;11.536;2023-06-14T05:46:03;95133.13;;;14.95;46.17
79612;BME280;69094;48.154;11.536;2023-06-14T05:48:29;95118.28;;;14.96;45.83
79612;BME280;69094;48.154;11.536;2023-06-14T05:50:55;95115.91;;;15.17;46.97
79612;BME280;69094;48.154;11.536;2023-06-14T05:53:21;95118.75;;;15.24;46.01
79612;BME280;69094;48.154;11.536;2023-06-14T05:55:46;95116.09;;;15.28;44.86
79612;BME280;69094;48.154;11.536;2023-06-14T05:58:12;95113.94;;;15.18;44.85
79612;BME280;69094;48.154;11.536;2023-06-14T06:00:39;95128.03;;;15.16;44.73
79612;BME280;69094;48.154;11.536;2023-06-14T06:03:04;95125.13;;;15.28;45.25
79612;BME280;69094;48.154;11.536;2023-06-14T06:05:30;95122.69;;;15.23;45.10
79612;BME280;69094;48.154;11.536;2023-06-14T06:07:55;95120.47;;;15.33;45.58
79612;BME280;69094;48.154;11.536;2023-06-14T06:10:21;95134.69;;;15.38;43.97
79612;BME280;69094;48.154;11.536;2023-06-14T06:12:46;95133.69;;;15.27;45.06
79612;BME280;69094;48.154;11.536;2023-06-14T06:15:13;95132.94;;;15.30;44.25
79612;BME280;69094;48.154;11.536;2023-06-14T06:17:40;95133.06;;;15.37;44.07
79612;BME280;69094;48.154;11.536;2023-06-14T06:20:06;95140.03;;;15.54;44.34
79612;BME280;69094;48.154;11.536;2023-06-14T06:22:36;95136.72;;;15.68;43.90
79612;BME280;69094;48.154;11.536;2023-06-14T06:25:01;95141.28;;;15.83;43.76
79612;BME280;69094;48.154;11.536;2023-06-14T06:27:27;95137.88;;;15.90;42.44
79612;BME280;69094;48.154;11.536;2023-06-14T06:29:53;95143.84;;;15.96;43.34
79612;BME280;69094;48.154;11.536;2023-06-14T06:32:18;95139.69;;;16.09;42.68
79612;BME280;69094;48.154;11.536;2023-06-14T06:34:44;95147.81;;;16.28;42.57
79612;BME280;69094;48.154;11.536;2023-06-14T06:37:10;95149.81;;;16.31;43.63
79612;BME280;69094;48.154;11.536;2023-06-14T06:39:35;95143.97;;;16.33;43.45
79612;BME280;69094;48.154;11.536;2023-06-14T06:42:01;95152.72;;;16.42;43.06
79612;BME280;69094;48.154;11.536;2023-06-14T06:44:26;95149.25;;;16.49;42.76
79612;BME280;69094;48.154;11.536;2023-06-14T06:46:52;95140.06;;;16.68;42.60
79612;BME280;69094;48.154;11.536;2023-06-14T06:49:17;95152.97;;;16.64;41.45
79612;BME280;69094;48.154;11.536;2023-06-14T06:51:42;95158.28;;;16.49;42.24
79612;BME280;69094;48.154;11.536;2023-06-14T06:54:08;95157.16;;;16.54;41.60
79612;BME280;69094;48.154;11.536;2023-06-14T06:56:34;95154.31;;;16.77;42.45
79612;BME280;69094;48.154;11.536;2023-06-14T06:59:00;95157.47;;;17.09;42.05
79612;BME280;69094;48.154;11.536;2023-06-14T07:01:25;95164.53;;;17.10;41.43
79612;BME280;69094;48.154;11.536;2023-06-14T07:03:51;95156.16;;;17.37;41.19
79612;BME280;69094;48.154;11.536;2023-06-14T07:06:17;95154.13;;;17.78;40.73
79612;BME280;69094;48.154;11.536;2023-06-14T07:08:45;95153.84;;;17.87;40.30
79612;BME280;69094;48.154;11.536;2023-06-14T07:11:13;95154.81;;;18.13;39.63
79612;BME280;69094;48.154;11.536;2023-06-14T07:13:38;95151.41;;;18.37;39.37
79612;BME280;69094;48.154;11.536;2023-06-14T07:16:04;95158.94;;;18.47;38.93
79612;BME280;69094;48.154;11.536;2023-06-14T07:18:29;95164.31;;;18.96;38.12
79612;BME280;69094;48.154;11.536;2023-06-14T07:20:56;95169.44;;;18.93;37.51
79612;BME280;69094;48.154;11.536;2023-06-14T07:23:22;95171.84;;;19.20;38.24
79612;BME280;69094;48.154;11.536;2023-06-14T07:25:48;95169.22;;;19.70;36.74
79612;BME280;69094;48.154;11.536;2023-06-14T07:28:13;95173.94;;;20.02;35.51
79612;BME280;69094;48.154;11.536;2023-06-14T07:30:39;95172.34;;;20.19;35.08
79612;BME280;69094;48.154;11.536;2023-06-14T07:33:05;95181.00;;;20.39;34.30
79612;BME280;69094;48.154;11.536;2023-06-14T07:35:30;95180.25;;;20.35;33.25
79612;BME280;69094;48.154;11.536;2023-06-14T07:37:56;95184.19;;;20.16;34.82
79612;BME280;69094;48.154;11.536;2023-06-14T07:40:21;95192.03;;;20.68;33.52
79612;BME280;69094;48.154;11.536;2023-06-14T07:42:47;95181.03;;;20.25;34.29
79612;BME280;69094;48.154;11.536;2023-06-14T07:45:13;95190.31;;;20.99;34.08
79612;BME280;69094;48.154;11.536;2023-06-14T07:47:39;95183.09;;;21.26;32.93
79612;BME280;69094;48.154;11.536;2023-06-14T07:50:05;95187.09;;;21.85;30.45
79612;BME280;69094;48.154;11.536;2023-06-14T07:52:30;95187.94;;;21.78;32.48
79612;BME280;69094;48.154;11.536;2023-06-14T07:54:56;95180.72;;;21.91;30.61
79612;BME280;69094;48.154;11.536;2023-06-14T07:57:22;95183.31;;;22.58;30.27
79612;BME280;69094;48.154;11.536;2023-06-14T07:59:47;95175.84;;;23.24;29.03
79612;BME280;69094;48.154;11.536;2023-06-14T08:02:12;95182.78;;;22.70;27.64
79612;BME280;69094;48.154;11.536;2023-06-14T08:04:38;95179.53;;;22.75;27.73
79612;BME280;69094;48.154;11.536;2023-06-14T08:07:04;95174.84;;;22.34;28.71
79612;BME280;69094;48.154;11.536;2023-06-14T08:09:29;95172.56;;;22.64;28.04
79612;BME280;69094;48.154;11.536;2023-06-14T08:11:56;95179.16;;;23.42;27.55
79612;BME280;69094;48.154;11.536;2023-06-14T08:14:21;95181.25;;;23.61;26.69
79612;BME280;69094;48.154;11.536;2023-06-14T08:16:47;95184.06;;;23.89;27.30
79612;BME280;69094;48.154;11.536;2023-06-14T08:19:12;95187.53;;;24.20;25.33
79612;BME280;69094;48.154;11.536;2023-06-14T08:21:38;95178.63;;;23.24;25.85
79612;BME280;69094;48.154;11.536;2023-06-14T08:24:03;95183.59;;;24.17;25.47
79612;BME280;69094;48.154;11.536;2023-06-14T08:26:29;95185.13;;;24.45;25.00
79612;BME280;69094;48.154;11.536;2023-06-14T08:28:55;95194.19;;;24.49;22.96
79612;BME280;69094;48.154;11.536;2023-06-14T08:31:21;95196.06;;;24.33;23.84
79612;BME280;69094;48.154;11.536;2023-06-14T08:33:47;95197.22;;;24.35;24.13
79612;BME280;69094;48.154;11.536;2023-06-14T08:36:12;95205.72;;;24.01;23.59
79612;BME280;69094;48.154;11.536;2023-06-14T08:38:38;95205.91;;;23.86;24.31
79612;BME280;69094;48.154;11.536;2023-06-14T08:41:05;95204.06;;;24.03;23.96
79612;BME280;69094;48.154;11.536;2023-06-14T08:43:31;95203.78;;;24.68;22.97
79612;BME280;69094;48.154;11.536;2023-06-14T08:46:02;95201.09;;;24.85;23.52
79612;BME280;69094;48.154;11.536;2023-06-14T08:48:28;95200.03;;;25.39;23.34
79612;BME280;69094;48.154;11.536;2023-06-14T08:50:56;95206.41;;;25.75;21.63
79612;BME280;69094;48.154;11.536;2023-06-14T08:53:28;95204.25;;;24.87;22.54
79612;BME280;69094;48.154;11.536;2023-06-14T08:55:54;95211.81;;;25.06;22.24
79612;BME280;69094;48.154;11.536;2023-06-14T08:58:20;95200.88;;;24.28;22.81
79612;BME280;69094;48.154;11.536;2023-06-14T09:00:49;95204.84;;;24.55;21.90
79612;BME280;69094;48.154;11.536;2023-06-14T09:03:17;95208.84;;;24.74;22.27
79612;BME280;69094;48.154;11.536;2023-06-14T09:05:43;95206.75;;;25.77;21.68
79612;BME280;69094;48.154;11.536;2023-06-14T09:08:09;95203.34;;;26.55;22.04
79612;BME280;69094;48.154;11.536;2023-06-14T09:10:35;95206.13;;;26.55;21.44
79612;BME280;69094;48.154;11.536;2023-06-14T09:13:02;95203.75;;;25.88;21.60
79612;BME280;69094;48.154;11.536;2023-06-14T09:15:30;95208.16;;;25.69;21.50
79612;BME280;69094;48.154;11.536;2023-06-14T09:17:55;95206.03;;;25.73;21.51
79612;BME280;69094;48.154;11.536;2023-06-14T09:20:21;95211.34;;;25.68;23.00
79612;BME280;69094;48.154;11.536;2023-06-14T09:22:48;95203.41;;;26.68;21.31
79612;BME280;69094;48.154;11.536;2023-06-14T09:25:14;95212.09;;;26.87;21.51
79612;BME280;69094;48.154;11.536;2023-06-14T09:27:43;95216.94;;;26.53;21.35
79612;BME280;69094;48.154;11.536;2023-06-14T09:30:12;95209.13;;;26.94;20.99
79612;BME280;69094;48.154;11.536;2023-06-14T09:32:38;95222.78;;;27.04;21.41
79612;BME280;69094;48.154;11.536;2023-06-14T09:35:07;95219.31;;;26.38;22.77
79612;BME280;69094;48.154;11.536;2023-06-14T09:37:34;95214.97;;;26.83;21.55
79612;BME280;69094;48.154;11.536;2023-06-14T09:40:01;95219.47;;;27.52;19.93
79612;BME280;69094;48.154;11.536;2023-06-14T09:42:26;95221.91;;;27.49;19.91
79612;BME280;69094;48.154;11.536;2023-06-14T09:44:54;95226.34;;;27.34;20.54
79612;BME280;69094;48.154;11.536;2023-06-14T09:47:20;95223.47;;;27.92;20.19
79612;BME280;69094;48.154;11.536;2023-06-14T09:49:46;95226.81;;;27.03;20.75
79612;BME280;69094;48.154;11.536;2023-06-14T09:52:18;95218.81;;;27.60;20.11
79612;BME280;69094;48.154;11.536;2023-06-14T09:54:45;95219.41;;;27.68;20.10
79612;BME280;69094;48.154;11.536;2023-06-14T09:57:23;95232.47;;;27.71;20.80
79612;BME280;69094;48.154;11.536;2023-06-14T09:59:53;95235.06;;;27.65;19.87
79612;BME280;69094;48.154;11.536;2023-06-14T10:02:29;95225.06;;;27.52;20.89
79612;BME280;69094;48.154;11.536;2023-06-14T10:05:01;95221.09;;;27.23;20.59
79612;BME280;69094;48.154;11.536;2023-06-14T10:07:32;95224.81;;;27.88;20.86
79612;BME280;69094;48.154;11.536;2023-06-14T10:10:00;95223.13;;;27.36;20.61
79612;BME280;69094;48.154;11.536;2023-06-14T10:12:26;95211.28;;;27.32;20.58
79612;BME280;69094;48.154;11.536;2023-06-14T10:14:53;95207.19;;;27.62;21.57
79612;BME280;69094;48.154;11.536;2023-06-14T10:17:47;95216.03;;;27.60;21.29
79612;BME280;69094;48.154;11.536;2023-06-14T10:23:00;95213.63;;;28.13;20.68
79612;BME280;69094;48.154;11.536;2023-06-14T10:25:28;95222.56;;;27.83;19.95
79612;BME280;69094;48.154;11.536;2023-06-14T10:28:23;95215.72;;;26.21;22.04
79612;BME280;69094;48.154;11.536;2023-06-14T10:31:10;95213.38;;;24.17;24.67
79612;BME280;69094;48.154;11.536;2023-06-14T10:33:50;95216.31;;;23.52;25.92
79612;BME280;69094;48.154;11.536;2023-06-14T10:39:03;95207.38;;;25.09;24.54
79612;BME280;69094;48.154;11.536;2023-06-14T10:41:32;95204.88;;;23.77;25.96
79612;BME280;69094;48.154;11.536;2023-06-14T10:46:40;95208.28;;;25.98;22.91
79612;BME280;69094;48.154;11.536;2023-06-14T10:49:10;95206.63;;;27.54;22.04
79612;BME280;69094;48.154;11.536;2023-06-14T10:51:42;95207.91;;;27.91;20.29
79612;BME280;69094;48.154;11.536;2023-06-14T10:54:14;95214.97;;;27.28;21.19
79612;BME280;69094;48.154;11.536;2023-06-14T10:56:50;95210.81;;;26.42;22.32
79612;BME280;69094;48.154;11.536;2023-06-14T10:59:17;95218.59;;;26.34;22.68
79612;BME280;69094;48.154;11.536;2023-06-14T11:04:42;95209.75;;;26.52;22.80
79612;BME280;69094;48.154;11.536;2023-06-14T11:12:48;95205.63;;;27.48;20.20
79612;BME280;69094;48.154;11.536;2023-06-14T11:15:13;95210.84;;;26.88;20.86
79612;BME280;69094;48.154;11.536;2023-06-14T11:17:39;95209.91;;;26.78;21.06
79612;BME280;69094;48.154;11.536;2023-06-14T11:20:11;95205.78;;;26.37;21.33
79612;BME280;69094;48.154;11.536;2023-06-14T11:22:44;95210.91;;;27.30;20.36
79612;BME280;69094;48.154;11.536;2023-06-14T11:25:10;95210.03;;;27.87;19.07
79612;BME280;69094;48.154;11.536;2023-06-14T11:27:36;95210.00;;;27.20;18.36
79612;BME280;69094;48.154;11.536;2023-06-14T11:30:01;95210.16;;;27.84;19.44
79612;BME280;69094;48.154;11.536;2023-06-14T11:32:27;95202.44;;;27.88;19.35
79612;BME280;69094;48.154;11.536;2023-06-14T11:34:53;95205.03;;;27.40;19.02
79612;BME280;69094;48.154;11.536;2023-06-14T11:37:19;95201.22;;;27.05;18.53
79612;BME280;69094;48.154;11.536;2023-06-14T11:39:45;95202.84;;;27.19;18.82
79612;BME280;69094;48.154;11.536;2023-06-14T11:42:16;95197.69;;;27.59;17.81
79612;BME280;69094;48.154;11.536;2023-06-14T11:44:45;95193.25;;;28.73;16.81
79612;BME280;69094;48.154;11.536;2023-06-14T11:47:11;95201.41;;;28.81;16.60
79612;BME280;69094;48.154;11.536;2023-06-14T11:49:36;95195.63;;;28.75;16.31
79612;BME280;69094;48.154;11.536;2023-06-14T11:52:02;95186.47;;;28.62;15.44
79612;BME280;69094;48.154;11.536;2023-06-14T11:54:27;95193.19;;;29.21;15.80
79612;BME280;69094;48.154;11.536;2023-06-14T11:56:53;95194.16;;;28.23;17.58
79612;BME280;69094;48.154;11.536;2023-06-14T11:59:20;95199.41;;;28.21;17.04
79612;BME280;69094;48.154;11.536;2023-06-14T12:01:47;95186.00;;;27.35;17.27
79612;BME280;69094;48.154;11.536;2023-06-14T12:04:13;95191.34;;;27.84;17.55
79612;BME280;69094;48.154;11.536;2023-06-14T12:06:38;95192.31;;;28.42;17.78
79612;BME280;69094;48.154;11.536;2023-06-14T12:09:05;95188.69;;;29.24;16.51
79612;BME280;69094;48.154;11.536;2023-06-14T12:11:43;95189.63;;;27.48;18.59
79612;BME280;69094;48.154;11.536;2023-06-14T12:14:09;95194.59;;;25.88;19.87
79612;BME280;69094;48.154;11.536;2023-06-14T12:16:36;95189.03;;;26.37;19.37
79612;BME280;69094;48.154;11.536;2023-06-14T12:19:16;95186.59;;;26.39;18.86
79612;BME280;69094;48.154;11.536;2023-06-14T12:21:43;95185.50;;;27.11;18.46
79612;BME280;69094;48.154;11.536;2023-06-14T12:24:09;95191.50;;;27.10;18.85
79612;BME280;69094;48.154;11.536;2023-06-14T12:26:40;95184.03;;;27.06;18.20
79612;BME280;69094;48.154;11.536;2023-06-14T12:29:07;95186.63;;;25.33;20.90
79612;BME280;69094;48.154;11.536;2023-06-14T12:31:32;95184.72;;;24.67;21.69
79612;BME280;69094;48.154;11.536;2023-06-14T12:33:58;95186.25;;;25.11;20.87
79612;BME280;69094;48.154;11.536;2023-06-14T12:36:24;95176.94;;;25.94;20.40
79612;BME280;69094;48.154;11.536;2023-06-14T12:38:50;95177.44;;;26.06;20.51
79612;BME280;69094;48.154;11.536;2023-06-14T12:41:19;95184.09;;;25.75;20.56
79612;BME280;69094;48.154;11.536;2023-06-14T12:43:46;95182.03;;;25.03;21.32
79612;BME280;69094;48.154;11.536;2023-06-14T12:46:11;95182.59;;;24.55;22.61
79612;BME280;69094;48.154;11.536;2023-06-14T12:48:36;95175.56;;;24.46;23.13
79612;BME280;69094;48.154;11.536;2023-06-14T12:51:02;95180.31;;;25.49;20.13
79612;BME280;69094;48.154;11.536;2023-06-14T12:53:27;95185.06;;;25.12;21.57
79612;BME280;69094;48.154;11.536;2023-06-14T12:55:53;95189.88;;;25.85;19.96
79612;BME280;69094;48.154;11.536;2023-06-14T12:58:18;95180.66;;;26.37;19.41
79612;BME280;69094;48.154;11.536;2023-06-14T13:00:45;95183.94;;;26.81;19.38
79612;BME280;69094;48.154;11.536;2023-06-14T13:03:11;95198.34;;;27.09;18.57
79612;BME280;69094;48.154;11.536;2023-06-14T13:05:36;95204.78;;;27.35;19.03
79612;BME280;69094;48.154;11.536;2023-06-14T13:08:02;95190.38;;;27.36;18.33
79612;BME280;69094;48.154;11.536;2023-06-14T13:10:28;95196.91;;;27.71;18.53
79612;BME280;69094;48.154;11.536;2023-06-14T13:12:53;95190.56;;;28.09;17.67